Time;durP1;ratioP1;P1;durP2;ratioP2;P2;SDS_P1;SDS_P2;PMS_P1;PMS_P2;Temp;Humidity;BMP_temperature;BMP_pressure;BME280_temperature;BME280_humidity;BME280_pressure;Samples;Min_cycle;Max_cycle;Signal;HPM_P1;HPM_P2
2022/06/13 00:00:23;;;;;;;;;;;15.00;99.90;;;;;;5014891;28;19910;-76
2022/06/13 00:02:49;;;;;;;;;;;15.00;99.90;;;;;;5015041;28;19913;-75
2022/06/13 00:05:15;;;;;;;;;;;15.00;99.90;;;;;;5015947;28;20319;-76
2022/06/13 00:07:41;;;;;;;;;;;14.90;99.90;;;;;;5016603;28;19909;-79
2022/06/13 00:10:07;;;;;;;;;;;14.80;99.90;;;;;;5048288;28;19920;-76
2022/06/13 00:12:32;;;;;;;;;;;14.80;99.90;;;;;;5016122;28;20277;-76
2022/06/13 00:14:58;;;;;;;;;;;14.70;99.90;;;;;;5014432;28;19995;-77
2022/06/13 00:17:25;;;;;;;;;;;14.80;99.90;;;;;;5015517;28;19909;-76
2022/06/13 00:19:50;;;;;;;;;;;14.80;99.90;;;;;;5017651;28;20350;-77
2022/06/13 00:22:16;;;;;;;;;;;14.80;99.90;;;;;;5016860;28;19956;-77
2022/06/13 00:24:41;;;;;;;;;;;14.70;99.90;;;;;;5016819;28;19912;-77
2022/06/13 00:27:07;;;;;;;;;;;14.70;99.90;;;;;;5014972;28;19906;-77
2022/06/13 00:29:32;;;;;;;;;;;14.70;99.90;;;;;;5049201;28;19923;-77
2022/06/13 00:31:58;;;;;;;;;;;14.80;99.90;;;;;;5016910;28;19909;-76
2022/06/13 00:34:23;;;;;;;;;;;14.90;99.90;;;;;;5049383;28;19909;-78
2022/06/13 00:36:49;;;;;;;;;;;14.90;99.90;;;;;;5016278;28;19910;-77
2022/06/13 00:39:15;;;;;;;;;;;14.90;99.90;;;;;;5022550;28;19916;-77
2022/06/13 00:41:41;;;;;;;;;;;14.90;99.90;;;;;;5022204;28;19952;-78
2022/06/13 00:44:16;;;;;;;;;;;15.00;99.90;;;;;;5021054;28;19945;-76
2022/06/13 00:46:42;;;;;;;;;;;15.10;99.90;;;;;;5053853;28;20016;-76
2022/06/13 00:49:09;;;;;;;;;;;15.20;99.90;;;;;;5020669;28;19941;-75
2022/06/13 00:51:40;;;;;;;;;;;15.10;99.90;;;;;;5022396;28;19909;-76
2022/06/13 00:54:06;;;;;;;;;;;15.00;99.90;;;;;;5053565;28;20454;-77
2022/06/13 00:56:32;;;;;;;;;;;15.00;99.90;;;;;;5021234;28;19932;-76
2022/06/13 00:59:00;;;;;;;;;;;15.10;99.90;;;;;;5020832;28;19909;-76
2022/06/13 01:01:26;;;;;;;;;;;15.10;99.90;;;;;;5022216;28;19905;-78
2022/06/13 01:03:52;;;;;;;;;;;15.00;99.90;;;;;;5022175;28;20255;-75
2022/06/13 01:06:18;;;;;;;;;;;15.00;99.90;;;;;;5020973;28;19913;-77
2022/06/13 01:08:44;;;;;;;;;;;15.00;99.90;;;;;;5054581;28;20011;-76
2022/06/13 01:11:17;;;;;;;;;;;15.10;99.90;;;;;;5022124;28;20003;-76
2022/06/13 01:13:45;;;;;;;;;;;15.10;99.90;;;;;;5022379;28;19906;-77
2022/06/13 01:16:22;;;;;;;;;;;15.20;99.90;;;;;;5054115;28;19960;-77
2022/06/13 01:19:03;;;;;;;;;;;15.20;99.90;;;;;;5021236;28;20337;-76
2022/06/13 01:21:47;;;;;;;;;;;15.20;99.90;;;;;;5023228;28;19905;-78
2022/06/13 01:24:18;;;;;;;;;;;15.10;99.90;;;;;;5023164;28;20003;-77
2022/06/13 01:26:59;;;;;;;;;;;15.10;99.90;;;;;;5022986;28;20354;-77
2022/06/13 01:29:38;;;;;;;;;;;15.00;99.90;;;;;;5054687;28;20002;-76
2022/06/13 01:32:10;;;;;;;;;;;15.10;99.90;;;;;;5022297;28;19910;-76
2022/06/13 01:34:39;;;;;;;;;;;15.10;99.90;;;;;;5022565;28;20127;-77
2022/06/13 01:37:08;;;;;;;;;;;15.10;99.90;;;;;;5054699;28;19941;-76
2022/06/13 01:39:36;;;;;;;;;;;15.00;99.90;;;;;;5022386;28;19905;-77
2022/06/13 01:42:07;;;;;;;;;;;15.00;99.90;;;;;;5054195;28;20498;-77
2022/06/13 01:44:39;;;;;;;;;;;15.00;99.90;;;;;;5022566;28;19945;-76
2022/06/13 01:47:24;;;;;;;;;;;14.90;99.90;;;;;;5023080;28;19912;-78
2022/06/13 01:50:09;;;;;;;;;;;14.90;99.90;;;;;;5050147;28;19909;-77
2022/06/13 01:52:47;;;;;;;;;;;14.90;99.90;;;;;;5017082;28;19916;-77
2022/06/13 01:55:12;;;;;;;;;;;14.90;99.90;;;;;;5050793;28;20338;-76
2022/06/13 01:58:05;;;;;;;;;;;14.90;99.90;;;;;;5019079;28;19948;-77
2022/06/13 02:00:32;;;;;;;;;;;14.90;99.90;;;;;;5018070;28;19909;-77
2022/06/13 02:02:58;;;;;;;;;;;14.80;99.90;;;;;;5050974;28;19909;-76
2022/06/13 02:05:31;;;;;;;;;;;14.70;99.90;;;;;;5018557;28;19928;-76
2022/06/13 02:08:12;;;;;;;;;;;14.60;99.90;;;;;;5017462;28;19906;-77
2022/06/13 02:10:43;;;;;;;;;;;14.60;99.90;;;;;;5016497;28;19905;-75
2022/06/13 02:13:12;;;;;;;;;;;14.70;99.90;;;;;;5016647;28;19948;-77
2022/06/13 02:15:44;;;;;;;;;;;14.80;99.90;;;;;;5049767;28;19918;-77
2022/06/13 02:18:13;;;;;;;;;;;14.90;99.90;;;;;;5016686;28;19925;-77
2022/06/13 02:20:41;;;;;;;;;;;14.90;99.90;;;;;;5049825;28;19951;-76
2022/06/13 02:23:08;;;;;;;;;;;14.90;99.90;;;;;;5049928;28;19909;-76
2022/06/13 02:25:43;;;;;;;;;;;14.90;99.90;;;;;;5017105;28;19912;-76
2022/06/13 02:28:12;;;;;;;;;;;14.90;99.90;;;;;;5049528;28;19928;-76
2022/06/13 02:30:40;;;;;;;;;;;14.80;99.90;;;;;;5017743;28;19905;-76
2022/06/13 02:33:26;;;;;;;;;;;14.80;99.90;;;;;;5017612;28;19976;-76
2022/06/13 02:35:54;;;;;;;;;;;14.80;99.90;;;;;;5016698;28;19909;-76
2022/06/13 02:38:24;;;;;;;;;;;14.70;99.90;;;;;;5018135;28;19929;-77
2022/06/13 02:41:08;;;;;;;;;;;14.70;99.90;;;;;;5017770;28;19910;-78
2022/06/13 02:43:40;;;;;;;;;;;14.70;99.90;;;;;;5017893;28;19912;-76
2022/06/13 02:46:09;;;;;;;;;;;14.80;99.90;;;;;;5016964;28;20259;-76
2022/06/13 02:48:56;;;;;;;;;;;14.80;99.90;;;;;;5016728;28;19944;-76
2022/06/13 02:51:31;;;;;;;;;;;14.80;99.90;;;;;;5049285;28;20033;-77
2022/06/13 02:54:00;;;;;;;;;;;14.80;99.90;;;;;;5016607;28;19910;-76
2022/06/13 02:56:32;;;;;;;;;;;14.80;99.90;;;;;;5017804;28;20318;-76
2022/06/13 02:59:19;;;;;;;;;;;14.70;99.90;;;;;;5049468;28;19917;-77
2022/06/13 03:01:46;;;;;;;;;;;14.70;99.90;;;;;;5016177;28;19912;-78
2022/06/13 03:04:21;;;;;;;;;;;14.70;99.90;;;;;;5048592;28;19909;-76
2022/06/13 03:07:00;;;;;;;;;;;14.70;99.90;;;;;;5048859;28;20003;-76
2022/06/13 03:09:31;;;;;;;;;;;14.70;99.90;;;;;;5015636;28;19905;-77
2022/06/13 03:12:02;;;;;;;;;;;14.70;99.90;;;;;;5016397;28;19956;-76
2022/06/13 03:14:31;;;;;;;;;;;14.70;99.90;;;;;;5016103;28;19906;-76
2022/06/13 03:17:14;;;;;;;;;;;14.60;99.90;;;;;;5048504;28;19909;-77
2022/06/13 03:19:43;;;;;;;;;;;14.70;99.90;;;;;;5016682;28;20376;-77
2022/06/13 03:22:11;;;;;;;;;;;14.80;99.90;;;;;;5048440;28;19913;-76
2022/06/13 03:24:37;;;;;;;;;;;14.80;99.90;;;;;;5047957;28;19984;-77
2022/06/13 03:27:16;;;;;;;;;;;14.90;99.90;;;;;;5048380;28;20380;-77
2022/06/13 03:29:45;;;;;;;;;;;14.90;99.90;;;;;;5031124;28;20355;-76
2022/06/13 03:32:19;;;;;;;;;;;14.80;99.90;;;;;;5014870;28;19959;-77
2022/06/13 03:34:47;;;;;;;;;;;14.80;99.90;;;;;;5014767;28;19917;-77
2022/06/13 03:37:29;;;;;;;;;;;14.70;99.90;;;;;;5047824;28;20397;-77
2022/06/13 03:40:06;;;;;;;;;;;14.80;99.90;;;;;;5015184;28;19909;-77
2022/06/13 03:42:39;;;;;;;;;;;14.90;99.90;;;;;;5016228;28;19909;-77
2022/06/13 03:45:08;;;;;;;;;;;14.90;99.90;;;;;;5014969;28;19941;-76
2022/06/13 03:47:33;;;;;;;;;;;14.80;99.90;;;;;;5016796;28;19917;-77
2022/06/13 03:50:28;;;;;;;;;;;14.80;99.90;;;;;;5048613;28;19909;-77
2022/06/13 03:53:04;;;;;;;;;;;14.80;99.90;;;;;;5015146;28;19956;-77
2022/06/13 03:55:32;;;;;;;;;;;14.80;99.90;;;;;;5014623;28;19952;-76
2022/06/13 03:58:08;;;;;;;;;;;14.70;99.90;;;;;;5047904;28;19940;-78
2022/06/13 04:00:38;;;;;;;;;;;14.70;99.90;;;;;;5015191;28;19909;-77
2022/06/13 04:03:05;;;;;;;;;;;14.80;99.90;;;;;;5016173;28;20350;-77
2022/06/13 04:05:54;;;;;;;;;;;14.90;99.90;;;;;;5016140;28;20047;-78
2022/06/13 04:08:19;;;;;;;;;;;14.80;99.90;;;;;;5015868;28;19905;-77
2022/06/13 04:11:00;;;;;;;;;;;15.00;99.90;;;;;;5015515;28;19912;-76
2022/06/13 04:13:38;;;;;;;;;;;15.00;99.90;;;;;;5046354;28;19905;-77
2022/06/13 04:16:15;;;;;;;;;;;15.00;99.90;;;;;;5046964;28;20381;-77
2022/06/13 04:18:56;;;;;;;;;;;14.90;99.90;;;;;;5047304;28;19945;-77
2022/06/13 04:21:34;;;;;;;;;;;15.00;99.90;;;;;;5047561;28;19905;-76
2022/06/13 04:24:18;;;;;;;;;;;15.00;99.90;;;;;;5046859;28;19912;-77
2022/06/13 04:27:03;;;;;;;;;;;15.00;99.90;;;;;;5046952;28;19905;-76
2022/06/13 04:29:34;;;;;;;;;;;15.10;99.90;;;;;;5047383;28;20381;-76
2022/06/13 04:32:04;;;;;;;;;;;15.00;99.90;;;;;;5013947;28;19975;-76
2022/06/13 04:34:33;;;;;;;;;;;15.10;99.90;;;;;;5015799;28;19910;-76
2022/06/13 04:36:59;;;;;;;;;;;15.10;99.90;;;;;;5048924;28;19939;-76
2022/06/13 04:39:28;;;;;;;;;;;15.10;99.90;;;;;;5015171;28;19905;-76
2022/06/13 04:41:54;;;;;;;;;;;15.20;99.90;;;;;;5033204;28;19913;-76
2022/06/13 04:44:22;;;;;;;;;;;15.10;99.90;;;;;;5017503;28;20657;-76
2022/06/13 04:46:48;;;;;;;;;;;15.10;99.90;;;;;;5030862;28;20435;-77
2022/06/13 04:49:24;;;;;;;;;;;15.10;99.90;;;;;;5016288;28;19905;-76
2022/06/13 04:51:52;;;;;;;;;;;15.20;99.90;;;;;;5014838;28;20381;-76
2022/06/13 04:54:28;;;;;;;;;;;15.30;99.90;;;;;;5047821;28;19992;-76
2022/06/13 04:56:58;;;;;;;;;;;15.20;99.90;;;;;;5014933;28;19948;-76
2022/06/13 04:59:24;;;;;;;;;;;15.20;99.90;;;;;;5046674;28;19956;-76
2022/06/13 05:01:50;;;;;;;;;;;15.30;99.90;;;;;;5012234;28;19913;-76
2022/06/13 05:04:19;;;;;;;;;;;15.40;99.90;;;;;;5013580;28;19909;-76
2022/06/13 05:06:45;;;;;;;;;;;15.40;99.90;;;;;;5013546;28;19909;-77
2022/06/13 05:09:10;;;;;;;;;;;15.40;99.90;;;;;;5013582;28;20354;-76
2022/06/13 05:11:41;;;;;;;;;;;15.40;99.90;;;;;;5013268;28;19996;-76
2022/06/13 05:14:27;;;;;;;;;;;15.40;99.90;;;;;;5013470;28;20342;-76
2022/06/13 05:17:11;;;;;;;;;;;15.40;99.90;;;;;;5012840;28;19917;-76
2022/06/13 05:19:46;;;;;;;;;;;15.40;99.90;;;;;;5044887;28;19956;-76
2022/06/13 05:22:22;;;;;;;;;;;15.50;99.90;;;;;;5011752;28;20004;-76
2022/06/13 05:24:48;;;;;;;;;;;15.50;99.90;;;;;;5016498;28;20327;-76
2022/06/13 05:27:13;;;;;;;;;;;15.50;99.90;;;;;;5048334;28;19956;-75
2022/06/13 05:29:39;;;;;;;;;;;15.60;99.90;;;;;;5016859;28;19906;-75
2022/06/13 05:32:05;;;;;;;;;;;15.60;99.90;;;;;;5048641;28;20281;-75
2022/06/13 05:34:39;;;;;;;;;;;15.60;99.90;;;;;;5016526;28;19906;-75
2022/06/13 05:37:05;;;;;;;;;;;15.60;99.90;;;;;;5015513;28;19905;-76
2022/06/13 05:39:31;;;;;;;;;;;15.70;99.90;;;;;;5016903;28;19909;-76
2022/06/13 05:41:56;;;;;;;;;;;15.80;99.90;;;;;;5048818;28;19911;-76
2022/06/13 05:44:22;;;;;;;;;;;15.90;99.90;;;;;;5048605;28;19909;-76
2022/06/13 05:46:47;;;;;;;;;;;15.90;99.90;;;;;;5016690;28;20289;-76
2022/06/13 05:49:13;;;;;;;;;;;16.00;99.90;;;;;;5016915;28;19975;-76
2022/06/13 05:51:39;;;;;;;;;;;16.10;99.90;;;;;;5015243;28;19916;-75
2022/06/13 05:54:04;;;;;;;;;;;16.10;99.90;;;;;;5033074;28;19905;-76
2022/06/13 05:56:30;;;;;;;;;;;16.20;99.90;;;;;;5029734;28;20285;-76
2022/06/13 05:58:55;;;;;;;;;;;16.20;99.90;;;;;;5035857;28;19913;-76
2022/06/13 06:01:21;;;;;;;;;;;16.30;99.90;;;;;;5034708;28;19912;-76
2022/06/13 06:03:46;;;;;;;;;;;16.40;99.90;;;;;;5031130;28;19964;-75
2022/06/13 06:06:25;;;;;;;;;;;16.70;99.90;;;;;;5017268;28;19906;-76
2022/06/13 06:08:54;;;;;;;;;;;16.70;99.90;;;;;;5041800;28;19920;-76
2022/06/13 06:11:20;;;;;;;;;;;16.80;99.90;;;;;;5024630;28;20000;-76
2022/06/13 06:13:46;;;;;;;;;;;16.80;99.90;;;;;;5027878;28;19917;-76
2022/06/13 06:16:16;;;;;;;;;;;17.00;99.90;;;;;;5029407;28;19925;-75
2022/06/13 06:18:42;;;;;;;;;;;17.00;99.90;;;;;;5024246;28;19909;-75
2022/06/13 06:21:07;;;;;;;;;;;17.10;99.90;;;;;;5031365;28;19909;-75
2022/06/13 06:23:33;;;;;;;;;;;17.40;99.90;;;;;;5029252;28;20313;-73
2022/06/13 06:25:58;;;;;;;;;;;17.50;99.90;;;;;;5030476;28;21190;-79
2022/06/13 06:28:25;;;;;;;;;;;17.50;99.90;;;;;;5028456;28;19955;-78
2022/06/13 06:30:51;;;;;;;;;;;17.60;99.90;;;;;;5026969;28;19923;-75
2022/06/13 06:33:17;;;;;;;;;;;17.80;99.90;;;;;;5039233;28;20386;-77
2022/06/13 06:35:42;;;;;;;;;;;17.90;99.90;;;;;;5025056;28;19974;-73
2022/06/13 06:38:09;;;;;;;;;;;17.80;99.90;;;;;;5024866;28;20382;-75
2022/06/13 06:40:35;;;;;;;;;;;18.60;99.90;;;;;;5022131;28;19913;-75
2022/06/13 06:43:01;;;;;;;;;;;19.60;99.90;;;;;;5024552;28;19971;-75
2022/06/13 06:45:27;;;;;;;;;;;20.50;99.90;;;;;;5029691;28;20359;-75
2022/06/13 06:47:53;;;;;;;;;;;21.50;99.90;;;;;;5031061;28;19913;-74
2022/06/13 06:50:23;;;;;;;;;;;21.60;99.90;;;;;;5032203;28;19920;-75
2022/06/13 06:52:49;;;;;;;;;;;21.90;99.90;;;;;;5025786;28;20317;-75
2022/06/13 07:00:45;;;;;;;;;;;24.20;95.30;;;;;;5027956;28;19958;-75
2022/06/13 07:03:11;;;;;;;;;;;24.40;93.70;;;;;;5028061;28;19984;-75
2022/06/13 07:05:36;;;;;;;;;;;24.20;93.40;;;;;;5043114;28;19995;-75
2022/06/13 07:08:02;;;;;;;;;;;23.80;93.30;;;;;;5028396;28;19913;-74
2022/06/13 07:10:28;;;;;;;;;;;23.20;93.60;;;;;;5026744;28;20000;-75
2022/06/13 07:12:53;;;;;;;;;;;23.60;93.60;;;;;;5025621;28;19928;-75
2022/06/13 07:15:19;;;;;;;;;;;24.00;93.10;;;;;;5026555;28;19921;-75
2022/06/13 07:17:45;;;;;;;;;;;23.90;92.80;;;;;;5032825;28;20389;-75
2022/06/13 07:20:11;;;;;;;;;;;22.30;94.80;;;;;;5026990;28;19916;-75
2022/06/13 07:22:36;;;;;;;;;;;21.80;96.40;;;;;;5029498;28;19916;-75
2022/06/13 07:25:02;;;;;;;;;;;21.90;96.10;;;;;;5032538;28;19913;-75
2022/06/13 07:27:28;;;;;;;;;;;21.70;96.50;;;;;;5024611;28;19925;-75
2022/06/13 07:29:53;;;;;;;;;;;22.30;95.80;;;;;;5033410;28;19913;-75
2022/06/13 07:32:23;;;;;;;;;;;22.80;94.70;;;;;;5026926;28;20381;-74
2022/06/13 07:34:50;;;;;;;;;;;23.60;92.80;;;;;;5026363;28;19920;-74
2022/06/13 07:38:16;;;;;;;;;;;24.20;91.00;;;;;;5025653;28;20738;-75
2022/06/13 07:40:03;;;;;;;;;;;23.60;91.50;;;;;;5027277;28;19913;-75
2022/06/13 07:42:32;;;;;;;;;;;22.30;93.70;;;;;;5023296;28;19913;-73
2022/06/13 07:44:57;;;;;;;;;;;22.50;93.80;;;;;;5024492;28;19909;-74
2022/06/13 07:47:23;;;;;;;;;;;23.10;93.40;;;;;;5024123;28;20401;-74
2022/06/13 07:49:48;;;;;;;;;;;23.60;92.40;;;;;;5025840;28;19999;-74
2022/06/13 07:52:14;;;;;;;;;;;23.30;92.40;;;;;;5028695;28;19975;-74
2022/06/13 07:54:39;;;;;;;;;;;23.60;92.00;;;;;;5025309;28;19917;-74
2022/06/13 07:57:05;;;;;;;;;;;23.40;92.20;;;;;;5026125;28;19924;-74
2022/06/13 07:59:30;;;;;;;;;;;23.90;91.80;;;;;;5026669;28;19913;-74
2022/06/13 08:01:57;;;;;;;;;;;24.00;91.80;;;;;;5029517;28;20011;-74
2022/06/13 08:04:22;;;;;;;;;;;23.20;92.70;;;;;;5027567;28;19908;-74
2022/06/13 08:06:48;;;;;;;;;;;22.80;93.40;;;;;;5028098;28;19928;-74
2022/06/13 08:09:13;;;;;;;;;;;22.40;93.10;;;;;;5025327;28;19916;-76
2022/06/13 08:11:46;;;;;;;;;;;21.70;94.30;;;;;;5024077;28;20371;-76
2022/06/13 08:14:12;;;;;;;;;;;21.60;95.10;;;;;;5021095;28;19960;-77
2022/06/13 08:16:38;;;;;;;;;;;22.70;93.30;;;;;;5023662;28;19971;-77
2022/06/13 08:19:04;;;;;;;;;;;22.80;92.50;;;;;;5024605;28;20118;-77
2022/06/13 08:21:30;;;;;;;;;;;22.60;93.20;;;;;;5027051;28;19909;-77
2022/06/13 08:23:56;;;;;;;;;;;23.60;91.90;;;;;;5025713;28;19916;-77
2022/06/13 08:26:21;;;;;;;;;;;24.00;90.70;;;;;;5026055;28;19916;-78
2022/06/13 08:28:47;;;;;;;;;;;24.00;90.70;;;;;;5022442;28;19975;-79
2022/06/13 08:31:13;;;;;;;;;;;23.20;91.10;;;;;;5017858;28;19909;-77
2022/06/13 08:33:39;;;;;;;;;;;22.20;91.80;;;;;;5025134;28;19921;-76
2022/06/13 08:36:05;;;;;;;;;;;21.40;93.60;;;;;;5020532;28;19917;-75
2022/06/13 08:38:31;;;;;;;;;;;21.20;94.20;;;;;;5020641;28;19913;-76
2022/06/13 08:41:15;;;;;;;;;;;22.00;92.40;;;;;;5025325;28;19955;-76
2022/06/13 08:43:41;;;;;;;;;;;22.20;91.30;;;;;;5043923;28;19921;-77
2022/06/13 08:46:22;;;;;;;;;;;22.00;92.00;;;;;;5022767;28;19913;-76
2022/06/13 08:48:51;;;;;;;;;;;21.50;93.20;;;;;;5026253;28;19909;-76
2022/06/13 08:51:22;;;;;;;;;;;21.20;93.40;;;;;;5026438;28;20506;-76
2022/06/13 08:53:57;;;;;;;;;;;20.90;94.20;;;;;;5027572;28;19909;-76
2022/06/13 08:56:24;;;;;;;;;;;20.40;94.80;;;;;;5023940;28;19920;-76
2022/06/13 08:58:56;;;;;;;;;;;20.50;95.40;;;;;;5027992;28;20367;-77
2022/06/13 09:01:36;;;;;;;;;;;20.90;94.50;;;;;;5030217;28;20499;-76
2022/06/13 09:04:21;;;;;;;;;;;20.90;95.10;;;;;;5028575;28;20403;-75
2022/06/13 09:06:47;;;;;;;;;;;21.90;94.40;;;;;;5028635;28;19913;-76
2022/06/13 09:09:20;;;;;;;;;;;23.10;92.40;;;;;;5028897;28;19908;-75
2022/06/13 09:11:48;;;;;;;;;;;23.90;91.30;;;;;;5026522;28;19917;-76
2022/06/13 09:14:19;;;;;;;;;;;23.90;89.40;;;;;;5028700;28;20336;-76
2022/06/13 09:17:04;;;;;;;;;;;23.50;91.00;;;;;;5026033;28;19921;-76
2022/06/13 09:19:36;;;;;;;;;;;22.80;91.60;;;;;;5041423;28;19917;-75
2022/06/13 09:22:06;;;;;;;;;;;22.30;92.10;;;;;;5029796;28;19909;-75
2022/06/13 09:24:40;;;;;;;;;;;22.40;91.50;;;;;;5028042;28;19921;-75
2022/06/13 09:27:12;;;;;;;;;;;22.40;91.90;;;;;;5027319;28;19921;-75
2022/06/13 09:29:37;;;;;;;;;;;22.20;91.20;;;;;;5027922;28;20266;-75
2022/06/13 09:32:22;;;;;;;;;;;22.20;92.10;;;;;;5025569;28;19963;-75
2022/06/13 09:34:47;;;;;;;;;;;21.90;91.40;;;;;;5041077;28;19910;-76
2022/06/13 09:37:16;;;;;;;;;;;21.50;91.80;;;;;;5026622;28;19928;-75
2022/06/13 09:39:41;;;;;;;;;;;21.00;93.00;;;;;;5027648;28;20015;-76
2022/06/13 09:42:17;;;;;;;;;;;21.10;93.80;;;;;;5028627;28;20441;-76
2022/06/13 09:44:58;;;;;;;;;;;22.50;92.80;;;;;;5042170;28;19956;-76
2022/06/13 09:47:42;;;;;;;;;;;24.40;89.00;;;;;;5030361;28;19916;-76
2022/06/13 09:50:14;;;;;;;;;;;25.50;84.90;;;;;;5027868;28;19960;-76
2022/06/13 09:52:58;;;;;;;;;;;26.20;81.70;;;;;;5024646;28;19920;-74
2022/06/13 09:55:51;;;;;;;;;;;27.00;78.60;;;;;;5028263;28;20004;-74
2022/06/13 09:58:29;;;;;;;;;;;27.30;74.80;;;;;;5005113;28;20459;-74
2022/06/13 10:01:08;;;;;;;;;;;27.00;73.10;;;;;;5044219;28;19917;-73
2022/06/13 10:03:47;;;;;;;;;;;25.50;73.90;;;;;;5026989;28;19959;-73
2022/06/13 10:06:31;;;;;;;;;;;24.40;78.70;;;;;;5024492;28;19917;-73
2022/06/13 10:09:29;;;;;;;;;;;23.90;79.80;;;;;;5042127;28;19924;-76
2022/06/13 10:12:13;;;;;;;;;;;23.50;82.50;;;;;;5007853;28;19913;-77
2022/06/13 10:14:46;;;;;;;;;;;23.60;83.80;;;;;;5030554;28;19923;-76
2022/06/13 10:17:11;;;;;;;;;;;25.00;79.80;;;;;;5024214;28;20023;-76
2022/06/13 10:19:52;;;;;;;;;;;25.80;78.80;;;;;;5027405;28;20047;-76
2022/06/13 10:22:29;;;;;;;;;;;27.00;74.90;;;;;;5026503;28;19959;-76
2022/06/13 10:25:21;;;;;;;;;;;27.20;71.90;;;;;;5029296;28;19917;-76
2022/06/13 10:27:52;;;;;;;;;;;27.50;71.80;;;;;;5025812;28;20363;-77
2022/06/13 10:30:20;;;;;;;;;;;27.70;72.10;;;;;;5025990;28;19996;-75
2022/06/13 10:33:04;;;;;;;;;;;28.00;71.40;;;;;;5026146;28;20043;-76
2022/06/13 10:35:50;;;;;;;;;;;28.50;71.70;;;;;;5028758;28;20409;-73
2022/06/13 10:38:35;;;;;;;;;;;28.00;69.60;;;;;;5028382;28;20356;-73
2022/06/13 10:41:01;;;;;;;;;;;28.10;71.50;;;;;;5030884;28;19913;-74
2022/06/13 10:43:27;;;;;;;;;;;27.50;71.80;;;;;;5032720;28;19928;-74
2022/06/13 10:45:52;;;;;;;;;;;26.00;75.50;;;;;;5032296;28;19916;-75
2022/06/13 10:48:27;;;;;;;;;;;24.70;78.80;;;;;;5028019;28;19913;-75
2022/06/13 10:50:55;;;;;;;;;;;23.90;81.50;;;;;;5026166;28;19909;-75
2022/06/13 10:53:27;;;;;;;;;;;23.20;84.70;;;;;;5031596;28;20060;-75
2022/06/13 10:55:54;;;;;;;;;;;22.70;86.30;;;;;;5033244;28;20266;-76
2022/06/13 10:58:23;;;;;;;;;;;23.50;85.90;;;;;;5030431;28;19913;-76
2022/06/13 11:01:04;;;;;;;;;;;24.90;81.20;;;;;;5030899;28;19979;-75
2022/06/13 11:03:29;;;;;;;;;;;25.30;78.50;;;;;;5024787;28;19909;-76
2022/06/13 11:05:57;;;;;;;;;;;26.10;74.60;;;;;;5044296;28;19916;-75
2022/06/13 11:08:23;;;;;;;;;;;26.00;74.00;;;;;;5023175;28;20044;-75
2022/06/13 11:10:53;;;;;;;;;;;26.50;77.40;;;;;;5026308;28;19940;-75
2022/06/13 11:13:24;;;;;;;;;;;26.80;73.10;;;;;;5022881;28;20476;-75
2022/06/13 11:24:16;;;;;;;;;;;24.90;76.40;;;;;;5030702;28;19916;-76
2022/06/13 11:29:28;;;;;;;;;;;23.50;81.20;;;;;;5025808;28;19963;-75
2022/06/13 11:31:58;;;;;;;;;;;23.20;79.80;;;;;;5021495;28;19960;-75
2022/06/13 11:34:25;;;;;;;;;;;23.50;80.30;;;;;;5028434;28;19915;-75
2022/06/13 11:36:58;;;;;;;;;;;24.90;77.30;;;;;;5026837;28;19917;-76
2022/06/13 11:39:35;;;;;;;;;;;25.60;76.30;;;;;;5022958;28;20462;-75
2022/06/13 11:42:01;;;;;;;;;;;25.20;75.40;;;;;;5028590;28;20358;-75
2022/06/13 11:44:27;;;;;;;;;;;24.20;77.70;;;;;;5023850;28;19916;-75
2022/06/13 11:46:52;;;;;;;;;;;24.40;77.70;;;;;;5027605;28;19921;-75
2022/06/13 11:49:18;;;;;;;;;;;25.50;76.40;;;;;;5025915;28;19996;-75
2022/06/13 11:51:58;;;;;;;;;;;26.30;73.50;;;;;;5024907;28;20009;-75
2022/06/13 11:54:36;;;;;;;;;;;26.50;74.40;;;;;;5026107;28;20007;-75
2022/06/13 11:57:16;;;;;;;;;;;26.90;73.90;;;;;;5025177;28;19912;-75
2022/06/13 11:59:44;;;;;;;;;;;27.40;71.40;;;;;;5026574;28;20847;-78
2022/06/13 12:02:16;;;;;;;;;;;28.00;70.20;;;;;;5021440;28;19985;-74
2022/06/13 12:04:44;;;;;;;;;;;28.40;68.50;;;;;;5025448;28;19991;-75
2022/06/13 12:07:19;;;;;;;;;;;28.20;66.90;;;;;;5024154;28;19971;-75
2022/06/13 12:09:53;;;;;;;;;;;28.70;67.30;;;;;;5026037;28;20289;-76
2022/06/13 12:12:18;;;;;;;;;;;29.60;65.80;;;;;;5041660;28;19917;-75
2022/06/13 12:14:44;;;;;;;;;;;29.70;65.40;;;;;;5023343;28;19913;-75
2022/06/13 12:17:16;;;;;;;;;;;29.50;65.30;;;;;;5022185;28;19912;-75
2022/06/13 12:19:41;;;;;;;;;;;28.40;66.10;;;;;;5042597;28;19917;-76
2022/06/13 12:22:16;;;;;;;;;;;28.30;67.10;;;;;;5027562;28;19909;-75
2022/06/13 12:25:00;;;;;;;;;;;28.60;66.80;;;;;;5027785;28;19924;-75
2022/06/13 12:27:41;;;;;;;;;;;28.40;67.20;;;;;;5043584;28;19955;-76
2022/06/13 12:30:10;;;;;;;;;;;28.00;68.80;;;;;;5028615;28;20358;-75
2022/06/13 12:32:38;;;;;;;;;;;28.90;65.20;;;;;;5029419;28;20043;-76
2022/06/13 12:35:13;;;;;;;;;;;27.60;66.40;;;;;;5027494;28;19999;-75
2022/06/13 12:37:48;;;;;;;;;;;26.40;68.90;;;;;;5028785;28;19947;-76
2022/06/13 12:40:32;;;;;;;;;;;26.30;68.20;;;;;;5029287;28;19909;-76
2022/06/13 12:43:16;;;;;;;;;;;26.60;68.00;;;;;;5040528;28;19917;-75
2022/06/13 12:46:01;;;;;;;;;;;27.00;67.90;;;;;;5024351;28;20006;-76
2022/06/13 12:48:41;;;;;;;;;;;27.00;68.00;;;;;;5026088;28;19924;-76
2022/06/13 12:51:12;;;;;;;;;;;26.40;68.60;;;;;;5025000;28;19913;-76
2022/06/13 12:53:54;;;;;;;;;;;27.00;67.60;;;;;;5024751;28;19974;-76
2022/06/13 12:56:24;;;;;;;;;;;26.70;67.30;;;;;;5024330;28;19909;-75
2022/06/13 12:58:59;;;;;;;;;;;26.50;67.50;;;;;;5025141;28;20551;-72
2022/06/13 13:01:32;;;;;;;;;;;25.60;69.00;;;;;;5027448;28;19916;-76
2022/06/13 13:04:16;;;;;;;;;;;24.80;70.60;;;;;;5026816;28;19955;-76
2022/06/13 13:06:47;;;;;;;;;;;25.60;70.10;;;;;;5021076;28;20516;-76
2022/06/13 13:09:31;;;;;;;;;;;26.60;69.70;;;;;;5024800;28;21266;-77
2022/06/13 13:12:01;;;;;;;;;;;28.00;66.70;;;;;;5049834;28;19921;-77
2022/06/13 13:14:45;;;;;;;;;;;29.20;63.20;;;;;;5029092;28;20400;-77
2022/06/13 13:17:15;;;;;;;;;;;29.20;62.80;;;;;;5041329;28;20419;-76
2022/06/13 13:19:46;;;;;;;;;;;28.30;62.40;;;;;;5027872;28;19913;-76
2022/06/13 13:22:41;;;;;;;;;;;27.60;64.50;;;;;;5030307;28;19963;-77
2022/06/13 13:25:09;;;;;;;;;;;26.70;65.00;;;;;;5016740;28;19909;-77
2022/06/13 13:27:44;;;;;;;;;;;26.30;66.10;;;;;;5029180;28;20665;-77
2022/06/13 13:30:18;;;;;;;;;;;26.30;66.40;;;;;;5030328;28;20362;-77
2022/06/13 13:33:02;;;;;;;;;;;26.80;65.50;;;;;;5032746;28;19967;-76
2022/06/13 13:35:28;;;;;;;;;;;27.50;64.60;;;;;;5032219;28;20396;-77
2022/06/13 13:38:19;;;;;;;;;;;28.50;63.10;;;;;;5033381;28;20007;-77
2022/06/13 13:40:48;;;;;;;;;;;28.50;61.00;;;;;;5030484;28;19916;-77
2022/06/13 13:43:22;;;;;;;;;;;28.00;62.50;;;;;;5030225;28;19963;-77
2022/06/13 13:46:07;;;;;;;;;;;27.50;62.90;;;;;;5048398;28;20415;-77
2022/06/13 13:48:35;;;;;;;;;;;28.00;60.50;;;;;;5034472;28;20401;-76
2022/06/13 13:51:05;;;;;;;;;;;28.40;60.00;;;;;;5035826;28;19924;-77
2022/06/13 13:53:33;;;;;;;;;;;28.10;60.50;;;;;;5034726;28;21693;-77
2022/06/13 13:56:07;;;;;;;;;;;28.00;61.50;;;;;;5035433;28;19927;-77
2022/06/13 13:58:34;;;;;;;;;;;27.10;60.80;;;;;;5030358;28;20400;-77
2022/06/13 14:01:10;;;;;;;;;;;26.20;63.90;;;;;;5030267;28;19916;-78
2022/06/13 14:03:36;;;;;;;;;;;26.50;63.60;;;;;;5036777;28;20281;-77
2022/06/13 14:06:24;;;;;;;;;;;27.40;62.00;;;;;;5034810;28;19916;-76
2022/06/13 14:08:50;;;;;;;;;;;26.90;63.10;;;;;;5032287;28;20800;-77
2022/06/13 14:11:16;;;;;;;;;;;27.10;62.50;;;;;;5041986;28;19959;-77
2022/06/13 14:13:43;;;;;;;;;;;27.00;62.50;;;;;;5032784;28;19920;-78
2022/06/13 14:16:12;;;;;;;;;;;27.40;61.40;;;;;;5035969;28;20005;-77
2022/06/13 14:18:44;;;;;;;;;;;27.50;60.00;;;;;;5035273;28;20366;-76
2022/06/13 14:21:17;;;;;;;;;;;27.40;59.70;;;;;;5047770;28;20078;-78
2022/06/13 14:23:48;;;;;;;;;;;27.00;60.40;;;;;;5036059;28;20055;-77
2022/06/13 14:26:21;;;;;;;;;;;27.50;60.70;;;;;;5034819;28;19916;-76
2022/06/13 14:28:49;;;;;;;;;;;27.90;59.40;;;;;;5034485;28;19909;-77
2022/06/13 14:31:15;;;;;;;;;;;27.00;60.00;;;;;;5035623;28;19913;-77
2022/06/13 14:36:54;;;;;;;;;;;26.70;60.50;;;;;;5035014;28;19931;-77
2022/06/13 14:39:32;;;;;;;;;;;26.10;61.70;;;;;;5037057;28;20373;-78
2022/06/13 14:42:22;;;;;;;;;;;27.20;61.90;;;;;;5033074;28;19909;-77
2022/06/13 14:45:06;;;;;;;;;;;28.30;59.60;;;;;;5000151;28;19909;-77
2022/06/13 14:47:31;;;;;;;;;;;27.30;60.20;;;;;;5035598;28;19982;-78
2022/06/13 14:49:57;;;;;;;;;;;27.50;60.90;;;;;;5034534;28;19905;-77
2022/06/13 14:52:28;;;;;;;;;;;28.00;59.40;;;;;;5035355;28;19909;-77
2022/06/13 14:55:05;;;;;;;;;;;28.20;58.70;;;;;;5035282;28;20039;-77
2022/06/13 14:57:31;;;;;;;;;;;27.90;60.00;;;;;;5022640;28;19920;-77
2022/06/13 15:00:05;;;;;;;;;;;26.40;62.60;;;;;;5020024;28;19913;-78